Time;durP1;ratioP1;P1;durP2;ratioP2;P2;SDS_P1;SDS_P2;PMS_P1;PMS_P2;Temp;Humidity;BMP_temperature;BMP_pressure;BME280_temperature;BME280_humidity;BME280_pressure;Samples;Min_cycle;Max_cycle;Signal;HPM_P1;HPM_P2
2023/09/26 00:00:42;;;;;;;6.35;4.22;;;10.90;99.90;;;;;;5047799;28;20025;-57
2023/09/26 00:03:07;;;;;;;4.78;3.90;;;10.80;99.90;;;;;;5048368;28;20029;-56
2023/09/26 00:05:33;;;;;;;5.40;3.88;;;10.70;99.90;;;;;;5037562;28;20041;-57
2023/09/26 00:08:03;;;;;;;7.93;4.28;;;10.60;99.90;;;;;;5038493;28;20120;-56
2023/09/26 00:10:29;;;;;;;6.60;4.63;;;10.70;99.90;;;;;;5042962;28;20103;-56
2023/09/26 00:12:54;;;;;;;5.00;4.05;;;10.70;99.90;;;;;;5039550;28;20028;-56
2023/09/26 00:15:20;;;;;;;4.68;4.13;;;10.70;99.90;;;;;;5035983;28;20376;-57
2023/09/26 00:17:46;;;;;;;6.55;4.20;;;10.70;99.90;;;;;;5047743;28;20029;-57
2023/09/26 00:20:26;;;;;;;7.47;4.47;;;10.70;99.90;;;;;;5038399;28;20075;-56
2023/09/26 00:22:51;;;;;;;6.30;4.83;;;10.70;99.90;;;;;;5033164;28;20024;-57
2023/09/26 00:25:17;;;;;;;5.55;4.40;;;10.60;99.90;;;;;;5034380;28;20295;-57
2023/09/26 00:27:42;;;;;;;6.78;4.63;;;10.50;99.90;;;;;;5033959;28;20498;-57
2023/09/26 00:30:08;;;;;;;8.30;4.72;;;10.60;99.90;;;;;;5037636;28;20032;-57
2023/09/26 00:32:35;;;;;;;6.35;5.25;;;10.50;99.90;;;;;;5035038;28;20072;-57
2023/09/26 00:35:01;;;;;;;5.40;4.03;;;10.40;99.90;;;;;;5036658;28;20091;-57
2023/09/26 00:37:26;;;;;;;5.95;4.00;;;10.40;99.90;;;;;;5037731;28;20490;-57
2023/09/26 00:39:53;;;;;;;6.50;3.92;;;10.30;99.90;;;;;;5038285;28;20105;-57
2023/09/26 00:42:19;;;;;;;6.38;5.30;;;10.20;99.90;;;;;;5034846;28;20112;-57
2023/09/26 00:44:44;;;;;;;5.30;4.53;;;10.20;99.90;;;;;;5033927;28;20121;-56
2023/09/26 00:47:10;;;;;;;5.85;4.13;;;10.20;99.90;;;;;;5040251;28;20552;-56
2023/09/26 00:49:36;;;;;;;4.55;3.85;;;10.20;99.90;;;;;;5035753;28;20026;-56
2023/09/26 00:52:04;;;;;;;5.30;4.47;;;10.10;99.90;;;;;;5038930;28;20033;-56
2023/09/26 00:54:30;;;;;;;5.55;4.40;;;10.10;99.90;;;;;;5039281;28;20322;-56
2023/09/26 00:56:57;;;;;;;9.18;5.07;;;10.20;99.90;;;;;;5033007;28;20025;-57
2023/09/26 00:59:23;;;;;;;6.60;5.03;;;10.10;99.90;;;;;;5037649;28;20270;-56
2023/09/26 01:01:50;;;;;;;4.75;3.90;;;10.10;99.90;;;;;;5033192;28;20394;-57
2023/09/26 01:04:18;;;;;;;5.30;4.22;;;10.10;99.90;;;;;;5038475;28;20025;-57
2023/09/26 01:06:44;;;;;;;5.15;4.65;;;10.10;99.90;;;;;;5032614;28;20026;-57
2023/09/26 01:09:10;;;;;;;4.03;3.65;;;10.00;99.90;;;;;;5036802;28;20024;-57
2023/09/26 01:11:37;;;;;;;5.30;4.60;;;10.00;99.90;;;;;;5034541;28;20037;-57
2023/09/26 01:14:03;;;;;;;5.45;4.57;;;10.00;99.90;;;;;;5034210;28;20029;-57
2023/09/26 01:16:28;;;;;;;6.43;5.32;;;10.00;99.90;;;;;;5037620;28;20043;-57
2023/09/26 01:18:54;;;;;;;7.75;5.43;;;10.10;99.90;;;;;;5036011;28;20051;-56
2023/09/26 01:21:20;;;;;;;7.85;5.38;;;10.20;99.90;;;;;;5035633;28;20041;-56
2023/09/26 01:23:55;;;;;;;7.68;5.45;;;10.20;99.90;;;;;;5037653;28;20100;-56
2023/09/26 01:26:20;;;;;;;5.93;5.32;;;10.20;99.90;;;;;;5040244;28;20040;-56
2023/09/26 01:28:46;;;;;;;6.93;5.40;;;10.20;99.90;;;;;;5034297;28;20021;-57
2023/09/26 01:31:12;;;;;;;8.85;5.43;;;10.10;99.90;;;;;;5033332;28;20104;-57
2023/09/26 01:33:37;;;;;;;8.70;6.38;;;10.10;99.90;;;;;;5031349;28;20025;-57
2023/09/26 01:36:03;;;;;;;8.32;5.20;;;10.10;99.90;;;;;;5039420;28;20090;-57
2023/09/26 01:38:29;;;;;;;9.60;6.25;;;10.10;99.90;;;;;;5034627;28;20451;-57
2023/09/26 01:40:55;;;;;;;7.20;5.40;;;10.10;99.90;;;;;;5036441;28;20104;-57
2023/09/26 01:43:21;;;;;;;7.65;4.90;;;10.00;99.90;;;;;;5043186;28;20095;-57
2023/09/26 01:45:46;;;;;;;10.95;6.10;;;10.00;99.90;;;;;;5037914;28;20109;-56
2023/09/26 01:48:12;;;;;;;7.53;5.25;;;10.00;99.90;;;;;;5035795;28;20033;-57
2023/09/26 01:50:39;;;;;;;8.80;5.10;;;10.00;99.90;;;;;;5038680;28;20029;-60
2023/09/26 01:53:04;;;;;;;9.10;5.70;;;10.00;99.90;;;;;;5038728;28;20029;-58
2023/09/26 01:55:30;;;;;;;7.35;5.85;;;10.00;99.90;;;;;;5036159;28;20536;-57
2023/09/26 01:57:56;;;;;;;6.25;4.60;;;10.00;99.90;;;;;;5034330;28;20021;-57
2023/09/26 02:00:22;;;;;;;7.22;5.50;;;9.90;99.90;;;;;;5040300;28;20033;-56
2023/09/26 02:02:49;;;;;;;7.07;5.45;;;9.80;99.90;;;;;;5041393;28;20426;-57
2023/09/26 02:05:17;;;;;;;7.20;5.57;;;9.80;99.90;;;;;;5037971;28;20014;-57
2023/09/26 02:07:47;;;;;;;8.75;6.13;;;9.80;99.90;;;;;;5034956;28;20028;-57
2023/09/26 02:10:13;;;;;;;9.50;6.35;;;9.80;99.90;;;;;;5035837;28;20151;-57
2023/09/26 02:12:43;;;;;;;7.53;5.35;;;9.80;99.90;;;;;;5043874;28;20415;-57
2023/09/26 02:15:11;;;;;;;8.17;6.03;;;9.80;99.90;;;;;;5045501;28;20494;-57
2023/09/26 02:17:41;;;;;;;6.80;6.10;;;9.70;99.90;;;;;;5043011;28;20025;-57
2023/09/26 02:20:15;;;;;;;8.82;5.85;;;9.80;99.90;;;;;;5039655;28;20043;-57
2023/09/26 02:22:42;;;;;;;6.25;5.63;;;9.80;99.90;;;;;;5038789;28;20040;-57
2023/09/26 02:25:09;;;;;;;7.25;6.10;;;9.80;99.90;;;;;;5044114;28;20022;-57
2023/09/26 02:27:34;;;;;;;8.77;5.65;;;9.80;99.90;;;;;;5044267;28;20104;-56
2023/09/26 02:30:00;;;;;;;7.18;5.88;;;9.80;99.90;;;;;;5040682;28;20096;-57
2023/09/26 02:32:25;;;;;;;9.18;6.57;;;9.90;99.90;;;;;;5045324;28;20056;-56
2023/09/26 02:34:51;;;;;;;10.07;6.10;;;10.00;99.90;;;;;;5045648;28;20395;-57
2023/09/26 02:37:16;;;;;;;7.38;5.78;;;9.80;99.90;;;;;;5038162;28;20446;-57
2023/09/26 02:39:42;;;;;;;7.45;5.32;;;9.70;99.90;;;;;;5039883;28;20029;-57
2023/09/26 02:42:07;;;;;;;6.28;5.68;;;9.70;99.90;;;;;;5039474;28;20022;-57
2023/09/26 02:44:33;;;;;;;6.25;4.90;;;9.70;99.90;;;;;;5047479;28;20378;-57
2023/09/26 02:46:58;;;;;;;11.35;6.00;;;9.60;99.90;;;;;;5047414;28;20025;-57
2023/09/26 02:49:24;;;;;;;8.77;5.95;;;9.70;99.90;;;;;;5043309;28;20028;-56
2023/09/26 02:51:49;;;;;;;7.72;4.90;;;9.70;99.90;;;;;;5047208;28;20075;-56
2023/09/26 02:54:14;;;;;;;7.47;6.07;;;9.80;99.90;;;;;;5041236;28;20049;-57
2023/09/26 02:56:40;;;;;;;16.90;5.40;;;9.80;99.90;;;;;;5045476;28;20501;-57
2023/09/26 02:59:06;;;;;;;7.55;5.13;;;9.70;99.90;;;;;;5044407;28;20053;-57
2023/09/26 03:01:32;;;;;;;6.25;5.20;;;9.70;99.90;;;;;;5045542;28;20028;-57
2023/09/26 03:03:57;;;;;;;6.32;5.68;;;9.60;99.90;;;;;;5043094;28;20100;-57
2023/09/26 03:06:23;;;;;;;6.63;4.95;;;9.60;99.90;;;;;;5039272;28;20542;-56
2023/09/26 03:08:48;;;;;;;7.00;5.63;;;9.60;99.90;;;;;;5042266;28;20545;-56
2023/09/26 03:11:14;;;;;;;6.70;6.00;;;9.60;99.90;;;;;;5039208;28;20041;-56
2023/09/26 03:13:39;;;;;;;5.85;4.82;;;9.70;99.90;;;;;;5038285;28;20037;-58
2023/09/26 03:16:08;;;;;;;8.48;5.65;;;9.60;99.90;;;;;;5044161;28;20021;-57
2023/09/26 03:18:35;;;;;;;6.85;5.32;;;9.60;99.90;;;;;;5040706;28;20483;-57
2023/09/26 03:21:05;;;;;;;7.03;5.18;;;9.60;99.90;;;;;;5042118;28;20021;-57
2023/09/26 03:23:31;;;;;;;7.53;6.22;;;9.50;99.90;;;;;;5046608;28;20017;-57
2023/09/26 03:25:57;;;;;;;7.95;6.15;;;9.60;99.90;;;;;;5045822;28;20047;-56
2023/09/26 03:28:22;;;;;;;8.63;6.00;;;9.60;99.90;;;;;;5045131;28;20024;-58
2023/09/26 03:30:48;;;;;;;9.98;6.90;;;9.50;99.90;;;;;;5038709;28;20108;-57
2023/09/26 03:33:13;;;;;;;8.38;6.80;;;9.50;99.90;;;;;;5040001;28;20083;-57
2023/09/26 03:35:39;;;;;;;8.15;6.60;;;9.50;99.90;;;;;;5049948;28;20100;-57
2023/09/26 03:38:04;;;;;;;10.35;5.40;;;9.40;99.90;;;;;;5042538;28;20501;-57
2023/09/26 03:40:30;;;;;;;8.45;5.47;;;9.40;99.90;;;;;;5049602;28;20048;-57
2023/09/26 03:42:56;;;;;;;8.27;5.78;;;9.40;99.90;;;;;;5043055;28;20115;-57
2023/09/26 03:45:22;;;;;;;7.03;5.65;;;9.40;99.90;;;;;;5044713;28;20025;-57
2023/09/26 03:47:47;;;;;;;7.05;5.90;;;9.40;99.90;;;;;;5043509;28;20544;-56
2023/09/26 03:50:13;;;;;;;9.10;5.90;;;9.40;99.90;;;;;;5040361;28;20040;-56
2023/09/26 03:52:39;;;;;;;7.72;6.00;;;9.30;99.90;;;;;;5050565;28;20040;-56
2023/09/26 03:55:06;;;;;;;6.82;5.15;;;9.30;99.90;;;;;;5040985;28;20022;-56
2023/09/26 03:57:33;;;;;;;6.95;5.55;;;9.20;99.90;;;;;;5041007;28;20032;-57
2023/09/26 03:59:59;;;;;;;9.13;5.70;;;9.20;99.90;;;;;;5041990;28;20056;-58
2023/09/26 04:02:25;;;;;;;8.30;5.78;;;9.20;99.90;;;;;;5037379;28;20368;-57
2023/09/26 04:04:50;;;;;;;9.13;6.68;;;9.20;99.90;;;;;;5044347;28;20088;-57
2023/09/26 04:07:16;;;;;;;8.90;5.80;;;9.20;99.90;;;;;;5045915;28;20021;-57
2023/09/26 04:09:41;;;;;;;8.80;6.45;;;9.30;99.90;;;;;;5049743;28;20033;-57
2023/09/26 04:12:07;;;;;;;8.32;6.80;;;9.20;99.90;;;;;;5041408;28;20045;-57
2023/09/26 04:14:32;;;;;;;8.77;6.57;;;9.20;99.90;;;;;;5041778;28;20079;-57
2023/09/26 04:16:58;;;;;;;7.25;5.75;;;9.20;99.90;;;;;;5042053;28;20514;-57
2023/09/26 04:19:24;;;;;;;10.57;7.25;;;9.10;99.90;;;;;;5044331;28;20025;-57
2023/09/26 04:21:52;;;;;;;9.40;6.97;;;9.20;99.90;;;;;;5045372;28;20026;-57
2023/09/26 04:24:19;;;;;;;10.18;7.03;;;9.20;99.90;;;;;;5045226;28;20018;-57
2023/09/26 04:26:45;;;;;;;9.93;6.95;;;9.20;99.90;;;;;;5039693;28;20021;-57
2023/09/26 04:29:11;;;;;;;7.00;6.30;;;9.10;99.90;;;;;;5042650;28;20037;-57
2023/09/26 04:31:36;;;;;;;12.93;6.95;;;9.10;99.90;;;;;;5045631;28;20032;-58
2023/09/26 04:34:03;;;;;;;12.88;6.70;;;9.10;99.90;;;;;;5045771;28;20025;-57
2023/09/26 04:36:29;;;;;;;11.18;6.68;;;9.00;99.90;;;;;;5044134;28;20044;-57
2023/09/26 04:38:55;;;;;;;9.02;7.60;;;9.00;99.90;;;;;;5038360;28;20057;-57
2023/09/26 04:41:21;;;;;;;10.40;8.10;;;9.10;99.90;;;;;;5049237;28;20133;-57
2023/09/26 04:43:46;;;;;;;12.02;8.48;;;9.10;99.90;;;;;;5041954;28;20020;-57
2023/09/26 04:46:13;;;;;;;11.50;8.25;;;9.20;99.90;;;;;;5040828;28;20072;-56
2023/09/26 04:48:39;;;;;;;11.18;8.18;;;9.20;99.90;;;;;;5041591;28;20681;-56
2023/09/26 04:51:12;;;;;;;11.50;8.70;;;9.20;99.90;;;;;;5049886;28;20075;-57
2023/09/26 04:53:38;;;;;;;9.40;8.05;;;9.20;99.90;;;;;;5046400;28;20032;-57
2023/09/26 04:56:04;;;;;;;8.82;7.57;;;9.10;99.90;;;;;;5039191;28;20036;-56
2023/09/26 04:58:32;;;;;;;10.07;8.13;;;9.10;99.90;;;;;;5046243;28;20029;-56
2023/09/26 05:01:00;;;;;;;8.27;7.20;;;9.10;99.90;;;;;;5045601;28;20032;-56
2023/09/26 05:03:26;;;;;;;10.75;6.93;;;9.10;99.90;;;;;;5041533;28;20501;-56
2023/09/26 05:05:52;;;;;;;13.00;7.45;;;9.10;99.90;;;;;;5042782;28;20049;-56
2023/09/26 05:08:17;;;;;;;9.05;6.28;;;9.10;99.90;;;;;;5040816;28;20538;-56
2023/09/26 05:10:43;;;;;;;8.10;6.78;;;9.10;99.90;;;;;;5045169;28;20033;-56
2023/09/26 05:13:08;;;;;;;8.40;6.55;;;9.10;99.90;;;;;;5039306;28;20025;-57
2023/09/26 05:15:35;;;;;;;10.80;6.90;;;9.10;99.90;;;;;;5042022;28;20021;-56
2023/09/26 05:18:02;;;;;;;10.38;7.07;;;9.10;99.90;;;;;;5045527;28;20017;-56
2023/09/26 05:20:28;;;;;;;7.93;6.38;;;9.10;99.90;;;;;;5041591;28;20332;-57
2023/09/26 05:22:54;;;;;;;12.65;6.60;;;9.00;99.90;;;;;;5041179;28;20025;-57
2023/09/26 05:25:19;;;;;;;9.85;7.10;;;9.00;99.90;;;;;;5041817;28;20020;-57
2023/09/26 05:27:45;;;;;;;11.82;6.85;;;8.90;99.90;;;;;;5043465;28;20433;-57
2023/09/26 05:30:12;;;;;;;11.88;6.50;;;8.90;99.90;;;;;;5035611;28;20029;-57
2023/09/26 05:32:39;;;;;;;8.68;6.90;;;8.90;99.90;;;;;;5042890;28;20025;-57
2023/09/26 05:35:06;;;;;;;12.40;6.55;;;8.90;99.90;;;;;;5042613;28;20461;-56
2023/09/26 05:37:33;;;;;;;7.88;6.00;;;8.90;99.90;;;;;;5045815;28;20390;-57
2023/09/26 05:39:58;;;;;;;10.05;7.50;;;8.80;99.90;;;;;;5036973;28;20483;-57
2023/09/26 05:42:24;;;;;;;13.90;7.97;;;8.90;99.90;;;;;;5041201;28;20032;-57
2023/09/26 05:44:50;;;;;;;10.80;7.60;;;8.90;99.90;;;;;;5036155;28;20033;-56
2023/09/26 05:47:15;;;;;;;11.65;8.35;;;9.00;99.90;;;;;;5041884;28;20062;-57
2023/09/26 05:49:40;;;;;;;10.30;8.43;;;8.90;99.90;;;;;;5039333;28;20391;-57
2023/09/26 05:52:06;;;;;;;10.07;7.85;;;9.00;99.90;;;;;;5038230;28;20030;-57
2023/09/26 05:54:33;;;;;;;8.85;7.30;;;9.00;99.90;;;;;;5041778;28;20025;-57
2023/09/26 05:56:58;;;;;;;11.95;7.18;;;9.00;99.90;;;;;;5037241;28;20021;-56
2023/09/26 05:59:24;;;;;;;9.75;7.47;;;9.10;99.90;;;;;;5042539;28;20021;-56
2023/09/26 06:01:49;;;;;;;9.50;7.28;;;9.10;99.90;;;;;;5038579;28;20083;-56
2023/09/26 06:04:16;;;;;;;12.30;7.95;;;9.20;99.90;;;;;;5042396;28;20029;-57
2023/09/26 06:06:42;;;;;;;10.52;7.70;;;9.20;99.90;;;;;;5041827;28;20021;-57
2023/09/26 06:09:08;;;;;;;10.13;8.02;;;9.20;99.90;;;;;;5044212;28;20017;-57
2023/09/26 06:11:33;;;;;;;11.93;7.57;;;9.30;99.90;;;;;;5043279;28;20241;-57
2023/09/26 06:13:59;;;;;;;13.07;8.18;;;9.30;99.90;;;;;;5035475;28;20111;-57
2023/09/26 06:16:25;;;;;;;19.10;9.15;;;9.40;99.90;;;;;;5035674;28;20067;-57
2023/09/26 06:18:52;;;;;;;10.35;7.55;;;9.50;99.90;;;;;;5040474;28;20069;-57
2023/09/26 06:21:18;;;;;;;11.10;8.23;;;9.50;99.90;;;;;;5036148;28;20399;-57
2023/09/26 06:23:44;;;;;;;14.13;8.07;;;9.60;99.90;;;;;;5043762;28;20035;-57
2023/09/26 06:26:09;;;;;;;12.45;8.25;;;9.60;99.90;;;;;;5043554;28;20096;-58
2023/09/26 06:28:35;;;;;;;9.88;7.90;;;9.70;99.90;;;;;;5039547;28;20355;-57
2023/09/26 06:31:08;;;;;;;9.43;7.55;;;9.80;99.90;;;;;;5039124;28;20104;-57
2023/09/26 06:33:35;;;;;;;10.82;7.93;;;9.80;99.90;;;;;;5044045;28;20029;-57
2023/09/26 06:36:00;;;;;;;12.60;7.78;;;9.90;99.90;;;;;;5036221;28;20148;-57
2023/09/26 06:38:26;;;;;;;9.05;7.55;;;10.00;99.90;;;;;;5043394;28;20077;-57
2023/09/26 06:41:06;;;;;;;11.07;8.57;;;10.10;99.90;;;;;;5041336;28;20089;-57
2023/09/26 06:43:32;;;;;;;8.93;7.40;;;10.10;99.90;;;;;;5040909;28;20116;-57
2023/09/26 06:45:57;;;;;;;10.50;8.30;;;10.10;99.90;;;;;;5034910;28;20547;-57
2023/09/26 06:48:23;;;;;;;9.10;7.20;;;10.20;99.90;;;;;;5046619;28;20055;-57
2023/09/26 06:50:48;;;;;;;8.50;7.25;;;10.20;99.90;;;;;;5039943;28;20029;-57
2023/09/26 06:53:14;;;;;;;9.23;7.15;;;10.30;99.90;;;;;;5040916;28;20033;-57
2023/09/26 06:55:40;;;;;;;11.68;8.23;;;10.30;99.90;;;;;;5039713;28;20037;-57
2023/09/26 06:58:06;;;;;;;11.25;7.32;;;10.40;99.90;;;;;;5048090;28;20025;-57
2023/09/26 07:00:31;;;;;;;8.18;7.22;;;10.40;99.90;;;;;;5047272;28;20037;-57
2023/09/26 07:02:57;;;;;;;8.18;6.43;;;10.50;99.90;;;;;;5043500;28;20070;-57
2023/09/26 07:05:26;;;;;;;8.13;6.60;;;10.60;99.90;;;;;;5048869;28;20025;-57
2023/09/26 07:07:51;;;;;;;11.05;8.35;;;10.60;99.90;;;;;;5049724;28;20021;-57
2023/09/26 07:10:17;;;;;;;10.20;7.93;;;10.80;99.90;;;;;;5045349;28;20031;-57
2023/09/26 07:12:44;;;;;;;8.77;7.07;;;10.80;99.90;;;;;;5047589;28;20060;-57
2023/09/26 07:15:11;;;;;;;8.80;7.47;;;10.90;99.90;;;;;;5046373;28;20048;-57
2023/09/26 07:17:37;;;;;;;13.13;7.47;;;11.00;99.90;;;;;;5042904;28;20033;-57
2023/09/26 07:20:04;;;;;;;12.63;7.70;;;11.10;99.90;;;;;;5043489;28;20048;-57
2023/09/26 07:22:30;;;;;;;9.98;7.47;;;11.20;99.90;;;;;;5042292;28;20021;-57
2023/09/26 07:24:56;;;;;;;10.25;7.47;;;11.30;99.90;;;;;;5039298;28;20036;-57
2023/09/26 07:27:21;;;;;;;10.30;7.82;;;11.40;99.90;;;;;;5048719;28;20092;-57
2023/09/26 07:29:47;;;;;;;11.73;8.40;;;11.50;99.90;;;;;;5042734;28;20139;-57
2023/09/26 07:32:14;;;;;;;9.55;7.43;;;11.50;99.90;;;;;;5043675;28;20037;-57
2023/09/26 07:34:41;;;;;;;11.32;8.13;;;11.70;99.90;;;;;;5044847;28;20040;-56
2023/09/26 07:37:07;;;;;;;9.90;7.75;;;11.80;99.90;;;;;;5044389;28;20025;-56
2023/09/26 07:39:32;;;;;;;11.25;8.13;;;11.90;99.90;;;;;;5048739;28;20059;-56
2023/09/26 07:41:58;;;;;;;8.60;7.18;;;12.00;99.90;;;;;;5037331;28;20032;-56
2023/09/26 07:44:24;;;;;;;10.38;7.68;;;12.10;99.90;;;;;;5038592;28;20534;-57
2023/09/26 07:46:50;;;;;;;13.75;9.32;;;12.20;99.90;;;;;;5041913;28;20021;-57
2023/09/26 07:49:15;;;;;;;12.13;8.43;;;12.40;99.90;;;;;;5044643;28;20020;-56
2023/09/26 07:51:41;;;;;;;13.05;7.40;;;12.50;99.90;;;;;;5043374;28;20051;-57
2023/09/26 07:54:06;;;;;;;9.60;6.63;;;12.60;99.90;;;;;;5042688;28;20430;-57
2023/09/26 07:56:32;;;;;;;14.75;7.25;;;12.70;99.90;;;;;;5044991;28;20102;-58
2023/09/26 07:58:57;;;;;;;8.02;6.65;;;12.90;99.90;;;;;;5041462;28;20479;-57
2023/09/26 08:01:25;;;;;;;13.52;7.07;;;13.00;99.90;;;;;;5044605;28;20377;-57
2023/09/26 08:03:50;;;;;;;10.63;7.57;;;13.20;99.90;;;;;;5042123;28;20141;-57
2023/09/26 08:06:16;;;;;;;14.45;8.00;;;13.40;99.90;;;;;;5045562;28;20191;-57
2023/09/26 08:08:42;;;;;;;13.07;7.30;;;13.60;99.90;;;;;;5044736;28;20028;-58
2023/09/26 08:11:10;;;;;;;10.85;7.72;;;13.80;99.90;;;;;;5050413;28;20017;-57
2023/09/26 08:13:37;;;;;;;12.77;7.50;;;13.90;99.90;;;;;;5046249;28;20344;-58
2023/09/26 08:16:03;;;;;;;14.52;6.72;;;14.20;99.90;;;;;;5047343;28;20032;-57
2023/09/26 08:18:28;;;;;;;8.10;5.93;;;14.40;99.90;;;;;;5048576;28;20147;-57
2023/09/26 08:20:57;;;;;;;9.60;4.93;;;14.80;99.90;;;;;;5044997;28;20044;-57
2023/09/26 08:23:25;;;;;;;8.63;5.07;;;16.00;99.90;;;;;;5048039;28;20118;-57
2023/09/26 08:25:57;;;;;;;7.43;4.00;;;18.10;99.90;;;;;;5038736;28;20017;-57
2023/09/26 08:28:22;;;;;;;4.28;3.25;;;20.40;99.90;;;;;;5038158;28;20021;-58
2023/09/26 08:30:48;;;;;;;9.10;3.67;;;22.60;99.90;;;;;;5042671;28;20017;-58
2023/09/26 08:33:13;;;;;;;10.73;3.60;;;24.70;97.30;;;;;;5042378;28;20021;-58
2023/09/26 08:35:39;;;;;;;5.13;3.08;;;26.20;92.50;;;;;;5044613;28;20371;-58
2023/09/26 08:38:05;;;;;;;5.82;2.67;;;27.30;90.30;;;;;;5043160;28;20033;-58
2023/09/26 08:40:30;;;;;;;6.07;2.92;;;28.30;85.50;;;;;;5044945;28;20075;-58
2023/09/26 08:42:57;;;;;;;4.97;3.05;;;29.00;83.80;;;;;;5039104;28;20537;-58
2023/09/26 08:45:25;;;;;;;4.30;2.50;;;29.90;79.60;;;;;;5046192;28;20540;-54
2023/09/26 08:47:54;;;;;;;6.22;2.47;;;30.70;76.10;;;;;;5042756;28;20021;-54
2023/09/26 08:50:21;;;;;;;9.30;4.07;;;31.30;75.20;;;;;;5036447;28;20057;-54
2023/09/26 08:52:47;;;;;;;6.15;3.33;;;31.50;72.50;;;;;;5043922;28;20025;-54
2023/09/26 08:55:12;;;;;;;4.93;2.85;;;31.90;72.40;;;;;;5040739;28;20086;-54
2023/09/26 08:57:39;;;;;;;2.85;2.33;;;32.60;70.20;;;;;;5039950;28;20029;-54
2023/09/26 09:00:09;;;;;;;3.17;2.25;;;33.40;68.00;;;;;;5045857;28;20029;-55
2023/09/26 09:02:34;;;;;;;3.65;2.67;;;34.20;65.20;;;;;;5046330;28;20025;-54
2023/09/26 09:05:00;;;;;;;4.57;2.92;;;34.20;65.40;;;;;;5046177;28;20025;-54
2023/09/26 09:07:26;;;;;;;2.97;2.33;;;34.80;63.90;;;;;;5039983;28;20154;-54
2023/09/26 09:10:07;;;;;;;3.67;2.70;;;34.60;63.60;;;;;;5048282;28;20392;-54
2023/09/26 09:12:37;;;;;;;6.60;2.67;;;34.50;62.50;;;;;;5041503;28;20407;-54
2023/09/26 09:15:15;;;;;;;2.28;2.00;;;34.70;62.70;;;;;;5047845;28;20736;-54
2023/09/26 09:17:43;;;;;;;3.53;2.40;;;34.60;62.50;;;;;;5040467;28;20530;-54
2023/09/26 09:20:09;;;;;;;3.40;2.10;;;34.90;61.60;;;;;;5040340;28;20040;-54
2023/09/26 09:22:35;;;;;;;2.70;2.40;;;35.40;60.80;;;;;;5038967;28;20053;-54
2023/09/26 09:25:02;;;;;;;3.60;2.15;;;35.80;59.80;;;;;;5042876;28;20056;-54
2023/09/26 09:27:32;;;;;;;3.63;2.50;;;36.00;58.40;;;;;;5042100;28;20049;-54
2023/09/26 09:30:08;;;;;;;4.10;2.67;;;35.40;58.50;;;;;;5036240;28;20067;-54
2023/09/26 09:32:34;;;;;;;3.47;2.47;;;35.50;60.00;;;;;;5039903;28;20043;-54
2023/09/26 09:35:00;;;;;;;2.50;1.95;;;35.70;56.90;;;;;;5044834;28;20033;-54
2023/09/26 09:37:26;;;;;;;5.72;2.38;;;35.80;57.90;;;;;;5039220;28;20021;-54
2023/09/26 09:39:52;;;;;;;3.53;2.13;;;35.70;56.50;;;;;;5044706;28;20466;-54
2023/09/26 09:42:18;;;;;;;4.80;2.10;;;36.00;58.90;;;;;;5039328;28;20036;-54
2023/09/26 09:44:44;;;;;;;3.53;1.83;;;35.90;58.70;;;;;;5041836;28;20387;-54
2023/09/26 09:47:11;;;;;;;2.88;1.52;;;36.20;57.50;;;;;;5045302;28;20029;-54
2023/09/26 09:49:45;;;;;;;4.63;3.00;;;36.60;57.60;;;;;;5041772;28;20059;-54
2023/09/26 09:52:12;;;;;;;4.68;2.15;;;36.40;58.50;;;;;;5041370;28;20024;-54
2023/09/26 09:54:42;;;;;;;2.25;2.05;;;36.30;56.90;;;;;;5044817;28;20064;-54
2023/09/26 09:57:11;;;;;;;4.00;1.80;;;36.50;58.90;;;;;;5046071;28;20032;-54
2023/09/26 09:59:37;;;;;;;;;;;36.40;57.90;;;;;;5044225;28;20565;-54
2023/09/26 10:02:04;;;;;;;3.05;1.70;;;36.10;57.90;;;;;;5044361;28;19913;-54
2023/09/26 10:04:34;;;;;;;3.03;2.25;;;36.60;56.00;;;;;;5047723;28;20036;-54
2023/09/26 10:07:00;;;;;;;2.45;1.88;;;36.30;55.60;;;;;;5047479;28;20021;-54
2023/09/26 10:09:27;;;;;;;3.55;1.92;;;36.10;55.00;;;;;;5046035;28;20025;-54
2023/09/26 10:11:54;;;;;;;6.40;2.00;;;36.20;56.50;;;;;;5022161;28;20378;-54
2023/09/26 10:14:24;;;;;;;5.93;2.20;;;35.50;56.90;;;;;;5045839;28;20510;-54
2023/09/26 10:16:50;;;;;;;5.28;1.85;;;35.50;53.70;;;;;;5046963;28;20029;-54
2023/09/26 10:19:16;;;;;;;1.88;1.58;;;34.10;56.40;;;;;;5047097;28;20033;-54
2023/09/26 10:21:42;;;;;;;4.38;1.95;;;34.20;58.10;;;;;;5041429;28;20087;-54
2023/09/26 10:24:08;;;;;;;5.55;2.33;;;32.70;57.60;;;;;;5039269;28;20095;-54
2023/09/26 10:26:37;;;;;;;3.90;2.05;;;32.10;59.90;;;;;;5034633;28;20116;-54
2023/09/26 10:29:15;;;;;;;3.97;1.80;;;32.10;61.30;;;;;;5038954;28;20026;-54
2023/09/26 10:32:07;;;;;;;3.47;2.15;;;32.60;60.40;;;;;;5037912;28;20132;-54
2023/09/26 10:34:35;;;;;;;2.75;1.98;;;33.90;59.80;;;;;;5036148;28;20391;-54
2023/09/26 10:37:03;;;;;;;4.72;1.90;;;34.70;59.30;;;;;;5041353;28;20046;-54
2023/09/26 10:39:39;;;;;;;4.55;2.00;;;35.10;57.80;;;;;;5044611;28;20107;-54
2023/09/26 10:42:12;;;;;;;6.03;2.08;;;35.00;58.50;;;;;;5037270;28;20029;-54
2023/09/26 10:44:45;;;;;;;4.50;2.22;;;35.20;58.90;;;;;;5041352;28;20034;-54
2023/09/26 10:47:15;;;;;;;4.88;1.80;;;35.80;58.10;;;;;;5050522;28;20422;-54
2023/09/26 10:49:43;;;;;;;2.72;2.00;;;35.70;56.50;;;;;;5042340;28;20029;-54
2023/09/26 10:52:09;;;;;;;3.25;2.28;;;35.20;55.20;;;;;;5038815;28;20032;-54
2023/09/26 10:54:39;;;;;;;2.45;2.13;;;34.30;57.50;;;;;;5046878;28;20482;-53
2023/09/26 10:57:05;;;;;;;3.22;1.60;;;34.10;57.60;;;;;;5046924;28;20025;-54
2023/09/26 10:59:32;;;;;;;5.53;2.40;;;34.00;58.50;;;;;;5031364;28;20376;-53
2023/09/26 11:01:59;;;;;;;1.83;1.55;;;33.50;55.50;;;;;;5031526;28;20427;-54
2023/09/26 11:04:31;;;;;;;2.55;2.28;;;33.80;55.60;;;;;;5038489;28;20512;-54
2023/09/26 11:06:57;;;;;;;3.60;2.00;;;33.10;57.30;;;;;;5040639;28;20026;-54
2023/09/26 11:09:23;;;;;;;5.78;2.03;;;33.10;55.90;;;;;;5042212;28;20021;-54
2023/09/26 11:11:49;;;;;;;3.70;1.70;;;32.70;56.10;;;;;;5036981;28;20037;-54
2023/09/26 11:14:15;;;;;;;2.03;1.50;;;32.90;56.30;;;;;;5043592;28;20032;-54
2023/09/26 11:16:41;;;;;;;2.92;1.65;;;32.80;57.50;;;;;;5042636;28;20029;-54
2023/09/26 11:19:09;;;;;;;1.80;1.60;;;33.90;56.70;;;;;;5041328;28;20076;-54
2023/09/26 11:21:35;;;;;;;1.70;1.60;;;34.40;55.50;;;;;;5032241;28;20033;-54
2023/09/26 11:24:19;;;;;;;2.80;1.60;;;34.80;55.20;;;;;;5041408;28;20028;-54
2023/09/26 11:26:45;;;;;;;4.03;1.80;;;35.60;53.00;;;;;;5038263;28;20112;-54
2023/09/26 11:29:12;;;;;;;2.25;1.52;;;35.50;53.20;;;;;;5039605;28;20470;-54
2023/09/26 11:31:39;;;;;;;1.88;1.42;;;35.20;55.00;;;;;;5035147;28;20402;-54
2023/09/26 11:34:04;;;;;;;2.40;1.55;;;35.20;55.50;;;;;;5041846;28;20032;-54
2023/09/26 11:36:31;;;;;;;5.55;1.90;;;34.80;56.50;;;;;;5039005;28;20025;-54
2023/09/26 11:38:59;;;;;;;2.50;1.60;;;35.10;54.20;;;;;;5041168;28;20052;-54
2023/09/26 11:41:25;;;;;;;2.40;1.57;;;36.20;54.40;;;;;;5043414;28;20017;-54
2023/09/26 11:43:52;;;;;;;5.15;1.90;;;36.20;54.50;;;;;;5044641;28;20029;-54
2023/09/26 11:46:18;;;;;;;3.70;2.20;;;35.80;54.00;;;;;;5041033;28;20028;-55
2023/09/26 11:48:46;;;;;;;3.28;1.90;;;35.50;52.50;;;;;;5033460;28;20106;-55
2023/09/26 11:51:13;;;;;;;4.72;1.90;;;34.20;56.10;;;;;;5033742;28;20018;-54
2023/09/26 11:53:40;;;;;;;4.03;1.77;;;34.60;54.90;;;;;;5033766;28;20087;-54
2023/09/26 11:56:07;;;;;;;1.77;1.55;;;35.20;54.60;;;;;;5046208;28;20024;-54
2023/09/26 11:58:36;;;;;;;5.43;2.28;;;35.70;54.70;;;;;;5033174;28;20021;-54
2023/09/26 12:01:02;;;;;;;;;;;34.30;54.60;;;;;;5033594;28;20018;-54
2023/09/26 12:03:27;;;;;;;5.63;1.67;;;34.70;56.10;;;;;;5047900;28;20007;-54
2023/09/26 12:05:53;;;;;;;2.50;1.92;;;33.90;56.30;;;;;;5034423;28;20170;-54
2023/09/26 12:08:18;;;;;;;1.67;1.55;;;34.40;57.30;;;;;;5034526;28;20535;-54
2023/09/26 12:10:44;;;;;;;1.92;1.48;;;34.70;56.80;;;;;;5044896;28;20036;-54
2023/09/26 12:13:10;;;;;;;5.32;2.33;;;34.10;56.20;;;;;;5043160;28;20017;-54
2023/09/26 12:15:36;;;;;;;2.55;1.55;;;34.70;56.50;;;;;;5042106;28;20036;-53
2023/09/26 12:18:02;;;;;;;3.85;1.90;;;33.90;56.40;;;;;;5043720;28;20451;-54
2023/09/26 12:20:29;;;;;;;2.30;2.00;;;33.20;57.50;;;;;;5033870;28;20064;-54
2023/09/26 12:22:56;;;;;;;2.20;2.00;;;32.60;58.40;;;;;;5041354;28;20060;-54
2023/09/26 12:25:23;;;;;;;2.33;2.13;;;32.60;59.60;;;;;;5043679;28;20038;-54
2023/09/26 12:27:50;;;;;;;4.20;2.25;;;32.10;59.70;;;;;;5044517;28;20029;-53
2023/09/26 12:30:16;;;;;;;4.32;2.10;;;31.90;59.50;;;;;;5035899;28;20024;-54
2023/09/26 12:32:42;;;;;;;4.60;2.20;;;31.90;61.50;;;;;;5032167;28;20462;-53
2023/09/26 12:35:08;;;;;;;2.80;2.10;;;31.80;61.10;;;;;;5042077;28;20033;-53
2023/09/26 12:37:33;;;;;;;5.28;2.50;;;31.20;64.30;;;;;;5038474;28;20029;-54
2023/09/26 12:39:59;;;;;;;3.45;2.17;;;31.20;61.30;;;;;;5044333;28;20106;-54
2023/09/26 12:42:25;;;;;;;2.47;1.90;;;31.20;62.30;;;;;;5042022;28;20027;-53
2023/09/26 12:44:51;;;;;;;4.15;2.17;;;30.90;61.00;;;;;;5037898;28;20034;-53